Time;durP1;ratioP1;P1;durP2;ratioP2;P2;SDS_P1;SDS_P2;PMS_P1;PMS_P2;Temp;Humidity;BMP_temperature;BMP_pressure;BME280_temperature;BME280_humidity;BME280_pressure;Samples;Min_cycle;Max_cycle;Signal;HPM_P1;HPM_P2
2022/11/16 00:01:03;;;;;;;29.50;12.67;;;;;;;;;;6098709;23;20196;-94
2022/11/16 00:04:10;;;;;;;33.70;13.23;;;;;;;;;;6115958;23;20222;-88
2022/11/16 00:07:16;;;;;;;31.87;12.47;;;;;;;;;;6113478;23;20166;-91
2022/11/16 00:10:21;;;;;;;32.00;13.27;;;;;;;;;;6113081;23;20170;-88
2022/11/16 00:13:28;;;;;;;32.13;13.63;;;;;;;;;;6109994;23;20181;-88
2022/11/16 00:16:33;;;;;;;34.53;13.53;;;;;;;;;;6111308;23;20195;-91
2022/11/16 00:19:41;;;;;;;29.37;12.43;;;;;;;;;;6110880;23;20533;-90
2022/11/16 00:22:47;;;;;;;33.17;13.53;;;;;;;;;;6109441;23;20185;-88
2022/11/16 00:25:53;;;;;;;31.43;13.47;;;;;;;;;;6108755;23;20214;-90
2022/11/16 00:29:00;;;;;;;34.03;13.10;;;;;;;;;;6110829;23;20186;-90
2022/11/16 00:32:05;;;;;;;32.50;12.87;;;;;;;;;;6110381;23;20272;-92
2022/11/16 00:35:10;;;;;;;36.30;14.77;;;;;;;;;;6110693;23;20169;-91
2022/11/16 00:38:16;;;;;;;33.67;12.90;;;;;;;;;;6109380;23;20169;-88
2022/11/16 00:41:22;;;;;;;38.57;14.43;;;;;;;;;;6110076;23;20157;-90
2022/11/16 00:44:28;;;;;;;34.60;13.93;;;;;;;;;;6110405;23;20178;-91
2022/11/16 00:47:34;;;;;;;35.33;13.73;;;;;;;;;;6110252;23;20217;-91
2022/11/16 00:50:40;;;;;;;33.37;13.60;;;;;;;;;;6109859;23;20266;-88
2022/11/16 00:53:45;;;;;;;33.57;14.07;;;;;;;;;;6109731;23;20818;-91
2022/11/16 00:56:50;;;;;;;29.60;12.53;;;;;;;;;;6108610;23;20194;-89
2022/11/16 00:59:57;;;;;;;28.00;12.90;;;;;;;;;;6109194;23;20280;-89
2022/11/16 01:03:02;;;;;;;31.73;12.73;;;;;;;;;;6109854;23;20170;-90
2022/11/16 01:06:08;;;;;;;25.57;11.57;;;;;;;;;;6110739;23;20786;-89
2022/11/16 01:09:15;;;;;;;26.77;11.13;;;;;;;;;;6111432;23;20197;-89
2022/11/16 01:12:20;;;;;;;28.20;11.93;;;;;;;;;;6109375;23;20341;-88
2022/11/16 02:52:24;;;;;;;24.20;10.27;;;;;;;;;;6160265;23;20217;-90
2022/11/16 02:55:31;;;;;;;26.43;10.40;;;;;;;;;;6170499;23;20217;-89
2022/11/16 02:58:37;;;;;;;21.27;9.67;;;;;;;;;;6170102;23;20173;-92
2022/11/16 03:01:44;;;;;;;25.87;10.40;;;;;;;;;;6170329;23;20175;-90
2022/11/16 03:04:51;;;;;;;22.50;10.10;;;;;;;;;;6168917;23;20180;-91
2022/11/16 03:08:01;;;;;;;21.23;9.90;;;;;;;;;;6168573;23;20164;-90
2022/11/16 03:14:39;;;;;;;19.67;9.43;;;;;;;;;;6187703;23;20217;-90
2022/11/16 03:17:46;;;;;;;22.80;9.43;;;;;;;;;;6170072;23;20192;-89
2022/11/16 03:20:54;;;;;;;20.83;9.60;;;;;;;;;;6170080;23;20220;-89
2022/11/16 03:24:02;;;;;;;20.40;9.27;;;;;;;;;;6171021;23;20177;-90
2022/11/16 03:27:13;;;;;;;22.80;9.30;;;;;;;;;;6171528;23;20189;-90
2022/11/16 03:30:20;;;;;;;18.70;8.63;;;;;;;;;;6170336;23;20515;-91
2022/11/16 03:33:29;;;;;;;19.60;8.47;;;;;;;;;;6169884;23;20656;-88
2022/11/16 03:36:37;;;;;;;23.07;9.07;;;;;;;;;;6172526;23;20209;-88
2022/11/16 03:39:46;;;;;;;22.20;8.97;;;;;;;;;;6186904;23;20216;-88
2022/11/16 03:42:54;;;;;;;21.10;9.30;;;;;;;;;;6170197;23;20218;-90
2022/11/16 03:46:02;;;;;;;19.33;8.73;;;;;;;;;;6169576;23;20172;-91
2022/11/16 03:49:07;;;;;;;18.90;8.75;;;;;;;;;;6172600;23;20176;-89
2022/11/16 03:52:16;;;;;;;20.00;8.60;;;;;;;;;;6188419;23;20216;-90
2022/11/16 03:55:24;;;;;;;18.80;8.60;;;;;;;;;;6171866;23;20156;-88
2022/11/16 03:58:31;;;;;;;20.87;9.13;;;;;;;;;;6171498;23;20664;-91
2022/11/16 04:01:39;;;;;;;17.67;8.63;;;;;;;;;;6171953;23;20193;-90
2022/11/16 04:25:17;;;;;;;20.50;8.40;;;;;;;;;;6189335;23;20204;-91
2022/11/16 04:28:25;;;;;;;16.27;7.47;;;;;;;;;;6172006;23;20177;-89
2022/11/16 04:38:24;;;;;;;18.03;7.60;;;;;;;;;;6188562;23;20168;-91
2022/11/16 04:48:28;;;;;;;15.53;7.37;;;;;;;;;;6189227;23;20174;-91
2022/11/16 04:51:34;;;;;;;20.58;8.05;;;;;;;;;;6170908;23;20275;-90
2022/11/16 04:54:40;;;;;;;15.60;7.22;;;;;;;;;;6172925;23;20157;-90
2022/11/16 04:57:49;;;;;;;17.90;6.80;;;;;;;;;;6172134;23;20499;-89
2022/11/16 05:04:46;;;;;;;12.68;6.18;;;;;;;;;;6189811;23;20164;-89
2022/11/16 05:07:53;;;;;;;12.55;6.22;;;;;;;;;;6190099;23;20724;-91
2022/11/16 05:11:04;;;;;;;14.63;5.93;;;;;;;;;;6172764;23;20181;-87
2022/11/16 05:14:09;;;;;;;18.90;6.50;;;;;;;;;;6173591;23;20160;-90
2022/11/16 05:17:16;;;;;;;11.90;6.03;;;;;;;;;;6173246;23;20177;-91
2022/11/16 05:27:10;;;;;;;13.83;6.27;;;;;;;;;;6153680;23;20176;-90
2022/11/16 05:30:17;;;;;;;22.40;6.60;;;;;;;;;;6175544;23;20184;-92
2022/11/16 05:33:23;;;;;;;17.37;6.73;;;;;;;;;;6172446;23;20173;-90
2022/11/16 05:36:44;;;;;;;16.47;6.30;;;;;;;;;;6174356;23;20197;-92
2022/11/16 05:39:52;;;;;;;14.88;6.35;;;;;;;;;;6173990;23;20262;-91
2022/11/16 05:43:02;;;;;;;16.48;6.40;;;;;;;;;;6173378;23;20192;-89
2022/11/16 05:46:13;;;;;;;12.47;4.70;;;;;;;;;;6173765;23;20264;-91
2022/11/16 05:49:22;;;;;;;10.37;5.17;;;;;;;;;;6173959;23;20164;-88
2022/11/16 05:52:28;;;;;;;12.47;5.20;;;;;;;;;;6172858;23;20211;-89
2022/11/16 05:55:40;;;;;;;10.80;4.60;;;;;;;;;;6173937;23;20246;-90
2022/11/16 05:58:47;;;;;;;11.37;5.20;;;;;;;;;;6173282;23;20172;-90
2022/11/16 06:01:53;;;;;;;14.73;5.03;;;;;;;;;;6172224;23;20240;-91
2022/11/16 06:05:00;;;;;;;10.03;5.13;;;;;;;;;;6174467;23;20168;-89
2022/11/16 06:08:05;;;;;;;10.43;5.20;;;;;;;;;;6171844;23;20168;-91
2022/11/16 06:11:13;;;;;;;9.93;4.30;;;;;;;;;;6170914;23;20168;-90
2022/11/16 06:14:19;;;;;;;10.40;4.83;;;;;;;;;;6172197;23;20173;-90
2022/11/16 06:17:24;;;;;;;14.17;5.00;;;;;;;;;;6171755;23;20671;-90
2022/11/16 06:20:30;;;;;;;11.33;5.50;;;;;;;;;;6188151;23;20236;-89
2022/11/16 06:23:36;;;;;;;12.13;5.77;;;;;;;;;;6188140;23;20212;-90
2022/11/16 06:26:44;;;;;;;11.97;5.90;;;;;;;;;;6173053;23;20216;-88
2022/11/16 06:29:50;;;;;;;13.03;6.60;;;;;;;;;;6169934;23;20231;-89
2022/11/16 06:32:56;;;;;;;12.27;6.27;;;;;;;;;;6171356;23;20164;-90
2022/11/16 06:36:01;;;;;;;15.20;6.40;;;;;;;;;;6189335;23;20168;-91
2022/11/16 06:39:07;;;;;;;16.50;5.90;;;;;;;;;;6171193;23;20244;-88
2022/11/16 06:42:17;;;;;;;11.57;6.03;;;;;;;;;;6168618;23;20239;-90
2022/11/16 06:45:22;;;;;;;16.03;6.27;;;;;;;;;;6173773;23;20176;-90
2022/11/16 06:48:32;;;;;;;10.83;5.63;;;;;;;;;;6171271;23;20478;-92
2022/11/16 06:51:39;;;;;;;15.37;5.97;;;;;;;;;;6170340;23;20191;-89
2022/11/16 06:54:45;;;;;;;11.50;5.40;;;;;;;;;;6167379;23;20176;-90
2022/11/16 06:57:53;;;;;;;19.57;6.53;;;;;;;;;;6168504;23;20172;-89
2022/11/16 07:01:01;;;;;;;13.70;5.93;;;;;;;;;;6169733;23;20180;-87
2022/11/16 07:04:10;;;;;;;10.03;4.70;;;;;;;;;;6170579;23;20164;-91
2022/11/16 07:07:17;;;;;;;11.83;5.50;;;;;;;;;;6170292;23;20189;-92
2022/11/16 07:10:24;;;;;;;10.80;5.47;;;;;;;;;;6187757;23;20165;-90
2022/11/16 07:13:33;;;;;;;14.70;5.67;;;;;;;;;;6170284;23;20259;-90
2022/11/16 07:16:44;;;;;;;12.57;5.43;;;;;;;;;;6188933;23;20177;-90
2022/11/16 07:19:50;;;;;;;10.87;5.23;;;;;;;;;;6172911;23;20196;-92
2022/11/16 07:22:56;;;;;;;14.13;6.30;;;;;;;;;;6170588;23;20168;-91
2022/11/16 07:26:02;;;;;;;9.27;4.50;;;;;;;;;;6171990;23;20172;-90
2022/11/16 07:29:19;;;;;;;10.30;5.50;;;;;;;;;;6170118;23;20177;-89
2022/11/16 07:32:43;;;;;;;11.27;5.73;;;;;;;;;;6172180;23;20193;-92
2022/11/16 07:35:53;;;;;;;11.47;6.20;;;;;;;;;;6170508;23;20197;-90
2022/11/16 07:38:59;;;;;;;12.77;5.30;;;;;;;;;;6189358;23;20176;-91
2022/11/16 07:42:10;;;;;;;12.43;5.43;;;;;;;;;;6186876;23;20268;-90
2022/11/16 07:45:52;;;;;;;15.83;5.53;;;;;;;;;;6173761;23;20164;-88
2022/11/16 07:48:58;;;;;;;12.57;5.90;;;;;;;;;;6169644;23;20189;-88
2022/11/16 07:52:24;;;;;;;16.57;6.20;;;;;;;;;;6169354;23;20195;-89
2022/11/16 07:55:34;;;;;;;13.80;5.73;;;;;;;;;;6168725;23;20212;-89
2022/11/16 07:58:42;;;;;;;10.40;5.60;;;;;;;;;;6171207;23;20217;-87
2022/11/16 08:01:50;;;;;;;13.07;6.00;;;;;;;;;;6171551;23;20261;-91
2022/11/16 08:04:55;;;;;;;18.37;7.00;;;;;;;;;;6171911;23;20213;-89
2022/11/16 08:08:04;;;;;;;15.23;6.33;;;;;;;;;;6186998;23;20193;-88
2022/11/16 08:11:13;;;;;;;17.03;5.83;;;;;;;;;;6171141;23;20193;-89
2022/11/16 08:14:19;;;;;;;19.03;6.63;;;;;;;;;;6171014;23;20172;-89
2022/11/16 08:17:27;;;;;;;14.60;6.47;;;;;;;;;;6189428;23;20624;-88
2022/11/16 08:20:35;;;;;;;13.87;6.20;;;;;;;;;;6172919;23;20183;-92
2022/11/16 08:23:41;;;;;;;16.47;7.67;;;;;;;;;;6171871;23;20208;-90
2022/11/16 08:26:50;;;;;;;15.80;7.50;;;;;;;;;;6171082;23;20213;-88
2022/11/16 08:29:55;;;;;;;18.37;7.17;;;;;;;;;;6171485;23;20672;-91
2022/11/16 08:33:04;;;;;;;19.30;7.23;;;;;;;;;;6173304;23;20168;-90
2022/11/16 08:36:11;;;;;;;19.03;7.90;;;;;;;;;;6174725;23;20169;-91
2022/11/16 08:39:16;;;;;;;18.87;7.03;;;;;;;;;;6172468;23;20228;-89
2022/11/16 08:42:30;;;;;;;20.13;7.57;;;;;;;;;;6173864;23;20200;-90
2022/11/16 08:45:37;;;;;;;18.73;7.47;;;;;;;;;;6173954;23;20172;-91
2022/11/16 08:48:44;;;;;;;19.13;7.53;;;;;;;;;;6173616;23;20193;-92
2022/11/16 08:51:50;;;;;;;17.50;7.30;;;;;;;;;;6173174;23;20203;-90
2022/11/16 08:54:56;;;;;;;20.03;6.83;;;;;;;;;;6173164;23;20236;-90
2022/11/16 08:58:01;;;;;;;20.37;7.00;;;;;;;;;;6189301;23;20262;-89
2022/11/16 09:01:09;;;;;;;16.80;7.00;;;;;;;;;;6174905;23;20216;-91
2022/11/16 09:04:23;;;;;;;21.77;7.40;;;;;;;;;;6190990;23;20244;-89
2022/11/16 09:07:28;;;;;;;18.00;7.60;;;;;;;;;;6172436;23;20161;-89
2022/11/16 09:10:34;;;;;;;19.17;7.10;;;;;;;;;;6190030;23;20197;-90
2022/11/16 09:13:39;;;;;;;19.73;6.77;;;;;;;;;;6172692;23;20188;-89
2022/11/16 09:16:45;;;;;;;17.00;7.13;;;;;;;;;;6174596;23;20329;-91
2022/11/16 09:19:52;;;;;;;15.87;6.93;;;;;;;;;;6171364;23;20200;-90
2022/11/16 09:22:58;;;;;;;19.47;7.17;;;;;;;;;;6172751;23;20200;-92
2022/11/16 09:26:04;;;;;;;17.67;6.73;;;;;;;;;;6174515;23;20161;-93
2022/11/16 09:29:13;;;;;;;22.33;7.93;;;;;;;;;;6174182;23;20188;-90
2022/11/16 09:32:18;;;;;;;20.97;7.93;;;;;;;;;;6175912;23;20169;-91
2022/11/16 09:35:26;;;;;;;21.07;7.67;;;;;;;;;;6172980;23;20172;-89
2022/11/16 09:38:31;;;;;;;22.53;8.53;;;;;;;;;;6192173;23;20188;-90
2022/11/16 09:41:43;;;;;;;26.33;9.93;;;;;;;;;;6173294;23;20196;-90
2022/11/16 09:49:12;;;;;;;19.87;9.27;;;;;;;;;;6175068;23;20140;-93
2022/11/16 09:52:22;;;;;;;17.43;7.27;;;;;;;;;;6173788;23;20207;-92
2022/11/16 09:55:31;;;;;;;18.80;7.30;;;;;;;;;;6190793;23;20188;-92
2022/11/16 09:58:41;;;;;;;23.20;7.80;;;;;;;;;;6173773;23;20181;-90
2022/11/16 10:01:49;;;;;;;22.67;8.33;;;;;;;;;;6172309;23;20195;-92
2022/11/16 10:04:57;;;;;;;24.13;10.27;;;;;;;;;;6190612;23;20222;-89
2022/11/16 10:08:07;;;;;;;16.50;7.30;;;;;;;;;;6173991;23;20189;-90
2022/11/16 10:11:28;;;;;;;20.33;7.90;;;;;;;;;;6190707;23;20164;-90
2022/11/16 10:14:48;;;;;;;16.63;6.87;;;;;;;;;;6174224;23;20212;-90
2022/11/16 10:18:11;;;;;;;18.37;7.47;;;;;;;;;;6177372;23;20167;-89
2022/11/16 10:21:40;;;;;;;24.43;8.13;;;;;;;;;;6173474;23;20220;-91
2022/11/16 10:24:55;;;;;;;22.67;7.73;;;;;;;;;;6171583;23;20238;-90
2022/11/16 10:28:15;;;;;;;19.30;7.40;;;;;;;;;;6172204;23;20168;-89
2022/11/16 10:31:23;;;;;;;22.83;8.10;;;;;;;;;;6133396;23;20723;-91
2022/11/16 10:34:33;;;;;;;19.03;7.80;;;;;;;;;;6175745;23;20205;-89
2022/11/16 10:37:45;;;;;;;62.17;19.97;;;;;;;;;;6171588;23;20504;-90
2022/11/16 10:40:55;;;;;;;21.93;8.20;;;;;;;;;;6172924;23;20624;-91
2022/11/16 10:44:01;;;;;;;24.07;10.20;;;;;;;;;;6172446;23;20172;-91
2022/11/16 10:47:15;;;;;;;29.67;10.73;;;;;;;;;;6175205;23;20240;-91
2022/11/16 10:50:31;;;;;;;21.60;8.37;;;;;;;;;;6174825;23;20498;-91
2022/11/16 10:53:38;;;;;;;22.13;9.27;;;;;;;;;;6172673;23;20156;-90
2022/11/16 10:56:48;;;;;;;18.00;8.20;;;;;;;;;;6173959;23;20173;-89
2022/11/16 10:59:56;;;;;;;21.33;8.13;;;;;;;;;;6175174;23;20192;-88
2022/11/16 11:03:02;;;;;;;19.98;7.15;;;;;;;;;;6176304;23;20244;-90
2022/11/16 11:06:13;;;;;;;16.73;7.37;;;;;;;;;;6173784;23;20224;-91
2022/11/16 11:09:25;;;;;;;21.87;7.80;;;;;;;;;;6175508;23;20157;-88
2022/11/16 11:12:40;;;;;;;21.43;8.40;;;;;;;;;;6174328;23;20160;-90
2022/11/16 11:15:46;;;;;;;20.90;8.30;;;;;;;;;;6175993;23;20185;-90
2022/11/16 11:18:52;;;;;;;17.57;8.20;;;;;;;;;;6175253;23;20267;-91
2022/11/16 11:22:00;;;;;;;17.90;7.60;;;;;;;;;;6191872;23;20260;-89
2022/11/16 11:25:15;;;;;;;16.60;7.87;;;;;;;;;;6175318;23;20179;-89
2022/11/16 11:28:27;;;;;;;20.37;7.57;;;;;;;;;;6175512;23;20165;-89
2022/11/16 11:31:41;;;;;;;23.53;10.53;;;;;;;;;;6175528;23;20172;-89
2022/11/16 11:34:49;;;;;;;20.87;8.03;;;;;;;;;;6176157;23;20214;-88
2022/11/16 11:37:56;;;;;;;18.43;8.37;;;;;;;;;;6194345;23;20210;-91
2022/11/16 11:41:04;;;;;;;15.70;7.03;;;;;;;;;;6193056;23;20156;-92
2022/11/16 11:44:18;;;;;;;17.10;7.57;;;;;;;;;;6175876;23;20173;-89
2022/11/16 11:47:33;;;;;;;17.73;7.78;;;;;;;;;;6176162;23;20173;-91
2022/11/16 11:50:46;;;;;;;16.53;7.50;;;;;;;;;;6176481;23;20193;-91
2022/11/16 15:34:00;;;;;;;19.43;10.00;;;;;;;;;;6160078;23;20213;-91
2022/11/16 15:37:05;;;;;;;15.27;8.20;;;;;;;;;;6170818;23;20224;-91
2022/11/16 15:40:11;;;;;;;24.70;11.02;;;;;;;;;;6189789;23;20209;-90
2022/11/16 15:43:22;;;;;;;19.63;10.15;;;;;;;;;;6174099;23;20222;-89
2022/11/16 15:46:32;;;;;;;24.47;10.80;;;;;;;;;;6172191;23;20181;-90
2022/11/16 15:49:40;;;;;;;17.15;8.65;;;;;;;;;;6173389;23;20265;-89
2022/11/16 15:52:48;;;;;;;13.18;7.50;;;;;;;;;;6173226;23;20173;-89
2022/11/16 15:55:54;;;;;;;16.10;7.90;;;;;;;;;;6174727;23;20181;-88
2022/11/16 15:59:01;;;;;;;21.23;10.97;;;;;;;;;;6174480;23;20169;-88
2022/11/16 16:02:17;;;;;;;17.43;8.50;;;;;;;;;;6173342;23;20208;-91
2022/11/16 16:05:35;;;;;;;16.40;8.13;;;;;;;;;;6174892;23;20169;-92
2022/11/16 16:08:44;;;;;;;23.00;10.23;;;;;;;;;;6173793;23;20184;-93
2022/11/16 16:11:50;;;;;;;20.30;10.75;;;;;;;;;;6170483;23;20196;-88
2022/11/16 16:15:18;;;;;;;19.02;10.48;;;;;;;;;;6173436;23;20160;-91
2022/11/16 16:21:46;;;;;;;74.10;18.37;;;;;;;;;;6170997;23;20223;-90
2022/11/16 16:24:52;;;;;;;39.57;14.63;;;;;;;;;;6169212;23;20172;-87
2022/11/16 16:28:02;;;;;;;31.93;12.13;;;;;;;;;;6171093;23;20156;-91
2022/11/16 16:31:09;;;;;;;27.60;12.70;;;;;;;;;;6171252;23;20172;-88
2022/11/16 16:34:16;;;;;;;27.60;10.93;;;;;;;;;;6173764;23;20260;-90
2022/11/16 16:37:24;;;;;;;26.20;10.67;;;;;;;;;;6172164;23;20185;-90
2022/11/16 16:40:37;;;;;;;32.23;12.30;;;;;;;;;;6172348;23;20250;-88
2022/11/16 16:43:44;;;;;;;23.67;10.57;;;;;;;;;;6172534;23;20196;-87
2022/11/16 16:50:43;;;;;;;34.90;13.30;;;;;;;;;;6176821;23;20161;-89
2022/11/16 16:53:54;;;;;;;28.07;11.60;;;;;;;;;;6174511;23;20168;-91
2022/11/16 16:57:00;;;;;;;28.90;13.20;;;;;;;;;;6173895;23;20218;-91
2022/11/16 17:00:06;;;;;;;31.10;12.77;;;;;;;;;;6174072;23;20220;-89
2022/11/16 17:03:13;;;;;;;28.90;12.07;;;;;;;;;;6173896;23;20195;-89
2022/11/16 17:06:19;;;;;;;53.07;20.17;;;;;;;;;;6171295;23;20239;-90
2022/11/16 17:09:26;;;;;;;29.83;12.87;;;;;;;;;;6168353;23;20199;-91
2022/11/16 17:12:32;;;;;;;31.50;13.93;;;;;;;;;;6170171;23;20168;-91
2022/11/16 17:15:38;;;;;;;35.72;13.88;;;;;;;;;;6168819;23;20311;-89
2022/11/16 17:18:45;;;;;;;35.35;12.95;;;;;;;;;;6169992;23;20173;-93
2022/11/16 17:21:51;;;;;;;28.33;11.60;;;;;;;;;;6172000;23;20176;-91
2022/11/16 17:24:58;;;;;;;25.85;10.80;;;;;;;;;;6170036;23;20164;-90
2022/11/16 17:28:04;;;;;;;21.40;9.75;;;;;;;;;;6170955;23;20176;-92
2022/11/16 17:31:10;;;;;;;22.60;10.07;;;;;;;;;;6185084;23;20256;-92
2022/11/16 17:34:15;;;;;;;21.75;10.25;;;;;;;;;;6167474;23;20195;-92
2022/11/16 17:37:20;;;;;;;17.42;8.27;;;;;;;;;;6170051;23;20164;-91
2022/11/16 17:40:28;;;;;;;23.95;10.02;;;;;;;;;;6169870;23;20237;-92
2022/11/16 17:43:33;;;;;;;25.47;9.93;;;;;;;;;;6169968;23;20217;-92
2022/11/16 17:50:11;;;;;;;20.02;8.98;;;;;;;;;;6170152;23;20185;-91
2022/11/16 17:53:23;;;;;;;18.27;8.80;;;;;;;;;;6172592;23;20184;-89
2022/11/16 17:56:31;;;;;;;20.93;10.03;;;;;;;;;;6170266;23;20237;-89
2022/11/16 17:59:37;;;;;;;13.37;7.03;;;;;;;;;;6170690;23;20177;-89
2022/11/16 18:02:42;;;;;;;12.82;7.28;;;;;;;;;;6173370;23;20193;-88
2022/11/16 18:05:48;;;;;;;17.88;8.77;;;;;;;;;;6172439;23;20168;-91
2022/11/16 18:08:53;;;;;;;19.88;9.63;;;;;;;;;;6172463;23;20177;-90
2022/11/16 18:12:00;;;;;;;21.00;10.87;;;;;;;;;;6172169;23;20173;-88
2022/11/16 18:15:06;;;;;;;17.77;9.80;;;;;;;;;;6171874;23;20213;-88
2022/11/16 18:18:11;;;;;;;20.73;9.05;;;;;;;;;;6173125;23;20200;-89
2022/11/16 18:21:17;;;;;;;16.05;9.00;;;;;;;;;;6174792;23;20254;-89
2022/11/16 18:24:24;;;;;;;13.80;8.30;;;;;;;;;;6174187;23;20193;-89
2022/11/16 18:31:22;;;;;;;18.53;8.87;;;;;;;;;;6192054;23;20198;-89
2022/11/16 18:34:30;;;;;;;16.03;8.93;;;;;;;;;;6176045;23;20187;-91
2022/11/16 18:37:37;;;;;;;16.23;9.65;;;;;;;;;;6175536;23;20232;-90
2022/11/16 18:40:49;;;;;;;15.18;9.10;;;;;;;;;;6175698;23;20168;-90
2022/11/16 18:43:56;;;;;;;16.92;8.82;;;;;;;;;;6176846;23;20240;-89
2022/11/16 18:47:18;;;;;;;20.33;9.07;;;;;;;;;;6196347;23;20168;-88
2022/11/16 18:50:28;;;;;;;24.45;11.38;;;;;;;;;;6176007;23;20265;-90
2022/11/16 18:56:56;;;;;;;19.13;9.27;;;;;;;;;;6174888;23;20228;-89
2022/11/16 19:00:02;;;;;;;19.37;9.57;;;;;;;;;;6175679;23;20176;-90
2022/11/16 19:03:08;;;;;;;18.25;9.00;;;;;;;;;;6192064;23;20199;-89
2022/11/16 19:06:17;;;;;;;17.15;8.88;;;;;;;;;;6174312;23;20185;-91
2022/11/16 19:09:23;;;;;;;16.60;8.82;;;;;;;;;;6173962;23;20169;-88
2022/11/16 19:12:29;;;;;;;17.92;8.93;;;;;;;;;;6173185;23;20177;-90
2022/11/16 19:15:35;;;;;;;17.25;8.70;;;;;;;;;;6173708;23;20188;-89
2022/11/16 19:18:41;;;;;;;22.80;10.95;;;;;;;;;;6175945;23;20180;-91
2022/11/16 19:21:47;;;;;;;24.60;11.27;;;;;;;;;;6176402;23;20168;-89
2022/11/16 19:24:53;;;;;;;15.73;6.65;;;;;;;;;;6176190;23;20650;-90
2022/11/16 19:27:58;;;;;;;16.20;7.90;;;;;;;;;;6190958;23;20216;-92
2022/11/16 19:31:07;;;;;;;22.35;10.73;;;;;;;;;;6174358;23;20189;-90
2022/11/16 19:34:13;;;;;;;17.33;8.95;;;;;;;;;;6174481;23;20609;-89
2022/11/16 19:37:21;;;;;;;16.70;8.50;;;;;;;;;;6174947;23;20179;-90
2022/11/16 19:40:27;;;;;;;55.05;23.27;;;;;;;;;;6176790;23;20173;-91
2022/11/16 19:43:32;;;;;;;36.28;12.50;;;;;;;;;;6176137;23;20205;-88
2022/11/16 19:46:39;;;;;;;26.83;9.32;;;;;;;;;;6175977;23;20221;-88
2022/11/16 19:49:46;;;;;;;23.45;7.70;;;;;;;;;;6174472;23;20555;-89
2022/11/16 19:52:54;;;;;;;16.58;7.55;;;;;;;;;;6175457;23;20171;-90
2022/11/16 19:56:00;;;;;;;17.10;7.82;;;;;;;;;;6193094;23;20559;-91
2022/11/16 19:59:12;;;;;;;19.40;7.80;;;;;;;;;;6194045;23;20189;-88
2022/11/16 20:02:20;;;;;;;18.52;9.52;;;;;;;;;;6192628;23;20169;-88
2022/11/16 20:05:28;;;;;;;16.30;7.83;;;;;;;;;;6174988;23;20192;-89
2022/11/16 20:08:36;;;;;;;13.45;6.57;;;;;;;;;;6175489;23;20184;-89
2022/11/16 20:11:42;;;;;;;15.48;7.18;;;;;;;;;;6174122;23;20168;-90
2022/11/16 20:14:47;;;;;;;13.15;5.93;;;;;;;;;;6174913;23;20179;-91
2022/11/16 20:17:53;;;;;;;17.95;6.55;;;;;;;;;;6190087;23;20371;-90
2022/11/16 20:21:01;;;;;;;16.92;6.25;;;;;;;;;;6173489;23;20169;-90
2022/11/16 20:24:10;;;;;;;16.85;6.60;;;;;;;;;;6171968;23;20520;-90
2022/11/16 20:27:16;;;;;;;30.80;11.40;;;;;;;;;;6171688;23;20240;-90
2022/11/16 20:30:22;;;;;;;106.57;28.40;;;;;;;;;;6174005;23;20168;-90
2022/11/16 20:33:28;;;;;;;38.67;11.77;;;;;;;;;;6173774;23;20183;-89
2022/11/16 20:36:34;;;;;;;34.38;11.98;;;;;;;;;;6173341;23;20172;-89
2022/11/16 20:39:44;;;;;;;26.60;9.10;;;;;;;;;;6173584;23;20168;-89
2022/11/16 20:42:49;;;;;;;29.07;9.27;;;;;;;;;;6174061;23;20289;-89
2022/11/16 20:45:55;;;;;;;25.08;9.05;;;;;;;;;;6173482;23;20169;-92
2022/11/16 20:49:01;;;;;;;33.83;10.48;;;;;;;;;;6189667;23;20620;-89
2022/11/16 20:52:06;;;;;;;32.67;12.27;;;;;;;;;;6173955;23;20176;-90
2022/11/16 20:55:16;;;;;;;31.67;10.70;;;;;;;;;;6173496;23;20212;-88
2022/11/16 20:58:21;;;;;;;35.15;9.13;;;;;;;;;;6173353;23;20173;-88
2022/11/16 21:01:31;;;;;;;28.23;10.05;;;;;;;;;;6189731;23;20620;-87
2022/11/16 21:04:36;;;;;;;22.33;8.40;;;;;;;;;;6172073;23;20220;-88
2022/11/16 21:07:42;;;;;;;24.85;9.07;;;;;;;;;;6191288;23;20171;-89
2022/11/16 21:10:54;;;;;;;23.15;8.40;;;;;;;;;;6190710;23;20219;-90
2022/11/16 21:14:16;;;;;;;32.35;9.75;;;;;;;;;;6190291;23;20173;-90
2022/11/16 21:17:22;;;;;;;32.22;9.93;;;;;;;;;;6173016;23;20196;-89
2022/11/16 21:20:27;;;;;;;24.25;9.32;;;;;;;;;;6171898;23;20168;-90
2022/11/16 21:23:33;;;;;;;28.63;9.17;;;;;;;;;;6189860;23;20191;-89
2022/11/16 21:26:41;;;;;;;30.52;9.02;;;;;;;;;;6173185;23;20230;-89
2022/11/16 21:29:47;;;;;;;28.77;8.70;;;;;;;;;;6173472;23;20168;-87
2022/11/16 21:32:53;;;;;;;25.57;8.00;;;;;;;;;;6173521;23;20248;-91
2022/11/16 21:36:03;;;;;;;25.83;8.50;;;;;;;;;;6174432;23;20177;-91
2022/11/16 21:39:10;;;;;;;24.97;8.33;;;;;;;;;;6173988;23;20180;-90
2022/11/16 21:42:18;;;;;;;22.07;8.00;;;;;;;;;;6174466;23;20169;-88
2022/11/16 21:45:25;;;;;;;24.43;8.00;;;;;;;;;;6173297;23;20228;-90
2022/11/16 21:48:32;;;;;;;23.95;8.45;;;;;;;;;;6172957;23;20168;-91
2022/11/16 21:51:47;;;;;;;24.37;8.57;;;;;;;;;;6172651;23;20168;-88
2022/11/16 21:54:59;;;;;;;22.92;7.65;;;;;;;;;;6173795;23;20210;-90
2022/11/16 21:58:19;;;;;;;20.13;6.65;;;;;;;;;;6175276;23;20167;-86
2022/11/16 22:01:58;;;;;;;19.95;7.55;;;;;;;;;;6173925;23;20164;-89
2022/11/16 22:08:17;;;;;;;17.63;6.77;;;;;;;;;;6191933;23;20168;-89
2022/11/16 22:11:23;;;;;;;17.20;7.00;;;;;;;;;;6174695;23;20172;-89
2022/11/16 22:14:28;;;;;;;19.23;6.77;;;;;;;;;;6192138;23;20197;-88
2022/11/16 22:17:36;;;;;;;12.80;6.03;;;;;;;;;;6172239;23;20168;-90
2022/11/16 22:20:41;;;;;;;13.30;6.00;;;;;;;;;;6174682;23;20184;-88
2022/11/16 22:23:53;;;;;;;17.33;6.63;;;;;;;;;;6173873;23;20196;-90
2022/11/16 22:26:59;;;;;;;12.63;6.00;;;;;;;;;;6191910;23;20164;-88
2022/11/16 22:30:05;;;;;;;17.20;7.27;;;;;;;;;;6173782;23;20274;-89
2022/11/16 22:33:13;;;;;;;15.20;6.73;;;;;;;;;;6172168;23;20265;-90
2022/11/16 22:36:19;;;;;;;17.57;6.97;;;;;;;;;;6172980;23;20165;-88
2022/11/16 22:39:25;;;;;;;21.83;9.43;;;;;;;;;;6190372;23;20220;-88
2022/11/16 22:42:31;;;;;;;20.15;8.00;;;;;;;;;;6173882;23;20197;-88
2022/11/16 22:45:40;;;;;;;19.87;7.50;;;;;;;;;;6188180;23;20579;-91
2022/11/16 22:48:47;;;;;;;19.33;7.27;;;;;;;;;;6171528;23;20247;-90
2022/11/16 22:51:52;;;;;;;16.77;6.83;;;;;;;;;;6173036;23;20217;-89
2022/11/16 22:54:58;;;;;;;18.10;6.67;;;;;;;;;;6173633;23;20165;-91
2022/11/16 22:58:04;;;;;;;14.80;5.97;;;;;;;;;;6172113;23;20184;-91
2022/11/16 23:01:11;;;;;;;15.47;7.00;;;;;;;;;;6172873;23;20184;-89
2022/11/16 23:04:18;;;;;;;14.13;6.67;;;;;;;;;;6177055;23;20196;-90
2022/11/16 23:07:24;;;;;;;13.97;6.27;;;;;;;;;;6173972;23;20168;-88
2022/11/16 23:15:47;;;;;;;18.07;6.93;;;;;;;;;;6193249;23;20257;-88
2022/11/16 23:17:20;;;;;;;15.30;6.93;;;;;;;;;;6191175;23;20189;-89
2022/11/16 23:27:30;;;;;;;19.33;7.80;;;;;;;;;;6177148;23;20165;-89
2022/11/16 23:30:38;;;;;;;15.60;7.37;;;;;;;;;;6193335;23;20168;-88
2022/11/16 23:33:44;;;;;;;19.13;8.00;;;;;;;;;;6174897;23;20216;-88
2022/11/16 23:36:52;;;;;;;21.73;8.63;;;;;;;;;;6173719;23;20168;-88
2022/11/16 23:39:57;;;;;;;17.35;7.78;;;;;;;;;;6174707;23;20172;-89
2022/11/16 23:47:07;;;;;;;16.95;8.15;;;;;;;;;;6190111;23;20152;-91
2022/11/16 23:50:12;;;;;;;23.57;9.90;;;;;;;;;;6172688;23;20189;-89
2022/11/16 23:53:19;;;;;;;21.67;9.80;;;;;;;;;;6190474;23;20180;-90
2022/11/16 23:56:24;;;;;;;20.97;9.23;;;;;;;;;;6174622;23;20217;-89
2022/11/16 23:59:30;;;;;;;17.97;8.07;;;;;;;;;;6172029;23;20250;-89
